This is the latest recevied weather packets stored in our database for station/object HS2LXA-WX. If no packets are shown the sender has not sent any weather packets the latest 10 day(s).
| Time | Temp. | Humidity | Pressure | Rain* | Wind** | Luminosity | Snow |
|---|---|---|---|---|---|---|---|
| 1777466090 | 30.56° C | 85% | 1013.1 hPa | 0 mm | - | - | - |
| 1777465489 | 30.56° C | 84% | 1013.1 hPa | 0 mm | - | - | - |
| 1777464342 | 30.56° C | 84% | 1013.2 hPa | 0 mm | - | - | - |
| 1777462628 | 31.11° C | 83% | 1013.2 hPa | 0 mm | - | - | - |
| 1777462028 | 31.11° C | 82% | 1013.1 hPa | 0 mm | - | - | - |
| 1777461428 | 31.11° C | 84% | 1013.1 hPa | 0 mm | - | - | - |
| 1777460829 | 31.11° C | 83% | 1013.1 hPa | 0 mm | - | - | - |
| 1777460228 | 31.11° C | 82% | 1013.2 hPa | 0 mm | - | - | - |
| 1777459340 | 31.11° C | 83% | 1013.2 hPa | 0 mm | - | - | - |
| 1777458740 | 31.11° C | 83% | 1013.2 hPa | 0 mm | - | - | - |
| 1777458140 | 31.67° C | 82% | 1013.1 hPa | 0 mm | - | - | - |
| 1777457540 | 32.22° C | 79% | 1013.1 hPa | 0 mm | - | - | - |
| 1777456582 | 32.22° C | 80% | 1013.1 hPa | 0 mm | - | - | - |
| 1777454999 | 32.22° C | 82% | 1013.2 hPa | 0 mm | - | - | - |
| 1777454397 | 32.22° C | 81% | 1013.1 hPa | 0 mm | - | - | - |
| 1777453798 | 31.67° C | 82% | 1013.1 hPa | 0 mm | - | - | - |
| 1777453196 | 31.67° C | 82% | 1013.1 hPa | 0 mm | - | - | - |
| 1777452597 | 31.67° C | 82% | 1013.1 hPa | 0 mm | - | - | - |
| 1777451996 | 32.22° C | 80% | 1013.2 hPa | 0 mm | - | - | - |
| 1777451396 | 32.78° C | 81% | 1013.2 hPa | 0 mm | - | - | - |
| 1777450433 | 32.22° C | 82% | 1013.2 hPa | 0 mm | - | - | - |
| 1777449832 | 32.22° C | 84% | 1013.2 hPa | 0 mm | - | - | - |
| 1777449232 | 32.22° C | 83% | 1013.1 hPa | 0 mm | - | - | - |
| 1777448632 | 32.22° C | 85% | 1013.2 hPa | 0 mm | - | - | - |
| 1777448031 | 31.67° C | 87% | 1013.2 hPa | 0 mm | - | - | - |
* Rain latest hour (hover to see other rain measurements)
** Current wind speed in m/s (hover to see current wind gust speed)